TERMINUS DAM (TRM)

Elevation: 752' · KAWEAH R basin · Operator: US Army Corps of Engineers

Provisional data, subject to change.
Query executed Saturday at 7:25:21   clock

Select a sensor type for a plot of data.
Note: Reservoir Flows are daily averages.

Earlier

Date RES ELE    STORAGE    RES CHG    TOC STO    ABV TOC    OUTFLOW    INFLOW    FNF    PPT INC    TEMP MN    TEMP MX    WINDLEN    EVP PAN   
 FEET   AF   AF   AF   AF   CFS   CFS   CFS   INCHES   DEG F   DEG F   MILES   INCHES  
01/07/2016 590.98 14880 5 6462 8418 323 326 325 0.14 7 12 73 0.05
01/08/2016 591.96 15379 499 6686 8693 6 258 258 0.00 5 9 64 0.03
01/09/2016 592.69 15759 380 6833 8926 5 197 197 0.00 5 15 91 0.06
01/10/2016 593.38 16125 366 7104 9021 5 190 190 0.03 7 14 65 0.05
01/11/2016 594.01 16464 339 7364 9100 5 177 177 0.00 6 14 91 0.06
01/12/2016 594.59 16782 318 7614 9168 4 166 166 0.00 4 16 105 0.08
01/13/2016 595.15 17092 310 7843 9249 3 161 161 0.00 7 18 88 0.07
01/14/2016 595.69 17396 304 8098 9298 3 157 157 0.00 3 15 93 0.05
01/15/2016 596.24 17710 314 8127 9583 3 163 163 0.05 9 19 79 0.08
01/16/2016 596.81 18040 330 7912 10128 3 171 171 0.00 9 18 82 0.07
01/17/2016 597.42 18397 357 8170 10227 3 185 185 0.00 8 19 100 0.08
01/18/2016 598.08 18791 394 7728 11063 4 203 203 0.51 9 16 99 0.06
01/19/2016 599.86 19882 1091 5212 14670 5 555 555 1.03 9 13 105 0.03
01/20/2016 603.09 21980 2098 5530 16450 7 1066 1066 0.00 8 19 87 0.07
01/21/2016 604.49 22938 958 5903 17035 5 490 490 0.01 7 18 83 0.07
01/22/2016 605.51 23654 716 6272 17383 3 366 366 0.03 8 21 92 0.09
01/23/2016 606.73 24531 877 5908 18623 2 446 446 0.39 8 17 113 0.06
01/24/2016 608.11 25550 1019 6248 19299 2 516 516 0.00 5 12 70 0.05
01/25/2016 608.94 26177 627 6604 19570 1 319 319 0.00 7 15 49 0.05
01/26/2016 609.71 26768 591 6949 19817 2 302 302 0.00 6 20 93 0.09
01/27/2016 610.40 27305 537 7324 19981 3 276 276 0.00 7 16 83 0.07
01/28/2016 611.04 27810 505 7692 20118 3 260 260 0.00 5 17 94 0.08
01/29/2016 611.66 28305 495 7881 20424 3 255 255 0.00 8 19 78 0.08
01/30/2016 613.05 29437 1132 6422 23018 4 575 575 0.36 10 12 76 0.02
01/31/2016 616.37 32260 2823 5623 26640 9 1433 1433 1.89 3 10 95 0.02
02/01/2016 618.59 34242 1982 5871 28374 9 1010 1010 0.01 4 13 96 0.06
02/02/2016 619.14 34745 503 6279 28466 311 566 566 0.00 2 11 100 0.06
02/03/2016 618.16 33852 -893 6611 27241 913 465 -- 0.00 2 15 84 0.09
02/04/2016 616.50 32374 -1478 6991 25383 1164 421 -- 0.00 3 16 82 0.08
02/05/2016 614.78 30887 -1487 7346 23541 1165 418 -- 0.00 4 19 86 0.10
02/06/2016 -- -- -- -- -- -- -- -- -- -- -- -- --

Later | Latest

Warning! This data is preliminary and subject to revision.

Show TRM Map | Plot TRM Data | 1 Month TRM Data | Real-Time TRM Data | TRM Info